Time;durP1;ratioP1;P1;durP2;ratioP2;P2;SDS_P1;SDS_P2;PMS_P1;PMS_P2;Temp;Humidity;BMP_temperature;BMP_pressure;BME280_temperature;BME280_humidity;BME280_pressure;Samples;Min_cycle;Max_cycle;Signal;HPM_P1;HPM_P2
2022/06/20 00:00:30;;;;;;;0.50;0.50;;;19.50;99.20;;;;;;5079146;28;21417;-45
2022/06/20 00:02:59;;;;;;;0.60;0.60;;;19.50;99.20;;;;;;5067004;28;20227;-49
2022/06/20 00:05:29;;;;;;;0.40;0.40;;;19.50;99.20;;;;;;5080740;28;20200;-46
2022/06/20 00:07:56;;;;;;;1.38;0.70;;;19.50;99.30;;;;;;5074525;28;20633;-51
2022/06/20 00:10:25;;;;;;;1.08;0.60;;;19.50;99.20;;;;;;5072656;28;20454;-48
2022/06/20 00:12:54;;;;;;;0.65;0.65;;;19.50;99.20;;;;;;5075298;28;20216;-47
2022/06/20 00:15:25;;;;;;;0.98;0.70;;;19.50;99.20;;;;;;5076323;28;20242;-49
2022/06/20 00:17:54;;;;;;;0.70;0.70;;;19.60;99.20;;;;;;5077613;28;20194;-48
2022/06/20 00:20:24;;;;;;;0.65;0.65;;;19.60;99.20;;;;;;5081287;28;20274;-52
2022/06/20 00:22:51;;;;;;;0.80;0.80;;;19.50;99.20;;;;;;5084707;28;20188;-48
2022/06/20 00:25:19;;;;;;;1.58;0.98;;;19.60;99.30;;;;;;5077688;28;20201;-50
2022/06/20 00:27:47;;;;;;;0.50;0.50;;;19.60;99.30;;;;;;5077902;28;20193;-48
2022/06/20 00:30:16;;;;;;;0.68;0.68;;;19.60;99.30;;;;;;5076844;28;20201;-53
2022/06/20 00:32:43;;;;;;;0.55;0.55;;;19.60;99.30;;;;;;5087425;28;20197;-48
2022/06/20 00:35:11;;;;;;;0.63;0.50;;;19.60;99.30;;;;;;5082299;28;20205;-53
2022/06/20 00:37:40;;;;;;;0.70;0.70;;;19.60;99.40;;;;;;5086106;28;20199;-52
2022/06/20 00:40:21;;;;;;;0.60;0.60;;;19.60;99.30;;;;;;5074339;28;20197;-50
2022/06/20 00:42:48;;;;;;;0.47;0.47;;;19.60;99.30;;;;;;5088437;28;20188;-50
2022/06/20 00:45:16;;;;;;;0.77;0.77;;;19.60;99.40;;;;;;5083235;28;20275;-50
2022/06/20 00:47:45;;;;;;;1.13;0.70;;;19.50;99.30;;;;;;5084138;28;20204;-47
2022/06/20 00:50:18;;;;;;;0.70;0.70;;;19.50;99.30;;;;;;5078218;28;20195;-50
2022/06/20 00:52:51;;;;;;;0.60;0.60;;;19.50;99.30;;;;;;5075582;28;20191;-53
2022/06/20 00:55:22;;;;;;;0.60;0.60;;;19.50;99.40;;;;;;5084138;28;20200;-51
2022/06/20 00:57:54;;;;;;;0.93;0.70;;;19.50;99.40;;;;;;5074741;28;20201;-50
2022/06/20 01:00:24;;;;;;;0.80;0.80;;;19.50;99.40;;;;;;5078950;28;20201;-50
2022/06/20 01:02:56;;;;;;;0.63;0.50;;;19.50;99.40;;;;;;5079014;28;20722;-49
2022/06/20 01:05:28;;;;;;;0.60;0.60;;;19.50;99.40;;;;;;5082993;28;20257;-50
2022/06/20 01:08:01;;;;;;;0.80;0.80;;;19.50;99.30;;;;;;5077144;28;20599;-50
2022/06/20 01:10:43;;;;;;;0.60;0.60;;;19.50;99.40;;;;;;5080739;28;20197;-50
2022/06/20 01:13:16;;;;;;;0.50;0.50;;;19.50;99.40;;;;;;5079981;28;20204;-51
2022/06/20 01:15:45;;;;;;;0.68;0.68;;;19.50;99.40;;;;;;5061122;28;20228;-51
2022/06/20 01:18:18;;;;;;;1.13;0.60;;;19.50;99.40;;;;;;5079008;28;20695;-55
2022/06/20 01:20:47;;;;;;;0.85;0.85;;;19.50;99.30;;;;;;5082782;28;20255;-53
2022/06/20 01:23:28;;;;;;;0.50;0.50;;;19.50;99.30;;;;;;5086311;28;20256;-53
2022/06/20 01:26:13;;;;;;;0.90;0.80;;;19.40;99.30;;;;;;5076430;28;20239;-56
2022/06/20 01:28:45;;;;;;;0.60;0.60;;;19.40;99.30;;;;;;5075247;28;20224;-53
2022/06/20 01:31:14;;;;;;;0.70;0.70;;;19.40;99.30;;;;;;5078126;28;20250;-54
2022/06/20 01:33:42;;;;;;;0.80;0.80;;;19.40;99.30;;;;;;5066018;28;20197;-49
2022/06/20 01:38:56;;;;;;;0.57;0.57;;;19.40;99.30;;;;;;5074734;28;20200;-53
2022/06/20 01:44:12;;;;;;;0.90;0.70;;;19.30;99.30;;;;;;5077335;28;20215;-54
2022/06/20 01:46:39;;;;;;;0.90;0.50;;;19.30;99.40;;;;;;5072195;28;20200;-55
2022/06/20 01:49:10;;;;;;;0.50;0.50;;;19.30;99.40;;;;;;5075431;28;20201;-56
2022/06/20 01:51:42;;;;;;;0.75;0.55;;;19.30;99.40;;;;;;5074259;28;20254;-56
2022/06/20 01:54:12;;;;;;;0.77;0.77;;;19.30;99.40;;;;;;5069746;28;20201;-56
2022/06/20 01:56:41;;;;;;;0.60;0.60;;;19.30;99.40;;;;;;5078071;28;20216;-54
2022/06/20 01:59:15;;;;;;;0.60;0.60;;;19.30;99.40;;;;;;5079355;28;20201;-55
2022/06/20 02:01:42;;;;;;;0.73;0.73;;;19.30;99.30;;;;;;5068060;28;20644;-54
2022/06/20 02:04:15;;;;;;;0.50;0.50;;;19.30;99.30;;;;;;5074699;28;20224;-55
2022/06/20 02:06:42;;;;;;;0.70;0.70;;;19.30;99.30;;;;;;5077482;28;20193;-55
2022/06/20 02:09:11;;;;;;;0.55;0.55;;;19.30;99.30;;;;;;5075588;28;20201;-53
2022/06/20 02:11:40;;;;;;;0.80;0.80;;;19.30;99.30;;;;;;5073572;28;20190;-56
2022/06/20 02:14:11;;;;;;;0.50;0.50;;;19.30;99.30;;;;;;5075879;28;20228;-55
2022/06/20 02:16:42;;;;;;;0.50;0.50;;;19.30;99.20;;;;;;5079123;28;20270;-54
2022/06/20 02:19:12;;;;;;;0.60;0.60;;;19.30;99.20;;;;;;5079018;28;20236;-54
2022/06/20 02:21:40;;;;;;;0.45;0.45;;;19.30;99.20;;;;;;5076342;28;20726;-55
2022/06/20 02:24:12;;;;;;;0.60;0.60;;;19.30;99.20;;;;;;5075112;28;20197;-55
2022/06/20 02:26:42;;;;;;;0.47;0.47;;;19.20;99.20;;;;;;5078780;28;20208;-53
2022/06/20 02:29:21;;;;;;;0.40;0.40;;;19.30;99.20;;;;;;5075452;28;20251;-55
2022/06/20 02:31:53;;;;;;;0.60;0.60;;;19.20;99.20;;;;;;5075906;28;20276;-55
2022/06/20 02:34:21;;;;;;;1.10;0.70;;;19.20;99.20;;;;;;5062184;28;20275;-55
2022/06/20 02:36:50;;;;;;;0.50;0.50;;;19.30;99.20;;;;;;5072562;28;20254;-56
2022/06/20 02:39:17;;;;;;;0.95;0.52;;;19.30;99.10;;;;;;5071006;28;20568;-53
2022/06/20 02:41:47;;;;;;;0.50;0.50;;;19.20;99.00;;;;;;5075699;28;20777;-56
2022/06/20 02:44:17;;;;;;;0.85;0.60;;;19.20;99.00;;;;;;5077333;28;20192;-52
2022/06/20 02:46:46;;;;;;;0.40;0.40;;;19.30;99.10;;;;;;5077903;28;20197;-55
2022/06/20 02:49:17;;;;;;;0.52;0.50;;;19.20;99.00;;;;;;5077263;28;20255;-53
2022/06/20 02:51:49;;;;;;;0.60;0.60;;;19.20;99.00;;;;;;5078443;28;20254;-52
2022/06/20 02:54:18;;;;;;;0.60;0.60;;;19.20;99.00;;;;;;5076868;28;20569;-52
2022/06/20 02:56:50;;;;;;;0.60;0.60;;;19.20;99.00;;;;;;5082121;28;20715;-54
2022/06/20 02:59:19;;;;;;;0.52;0.52;;;19.20;98.90;;;;;;5079354;28;20209;-55
2022/06/20 03:01:52;;;;;;;0.68;0.68;;;19.20;98.90;;;;;;5080077;28;20221;-54
2022/06/20 03:04:22;;;;;;;0.63;0.63;;;19.20;98.80;;;;;;5079288;28;20200;-52
2022/06/20 03:06:53;;;;;;;0.60;0.50;;;19.20;98.80;;;;;;5077409;28;20243;-56
2022/06/20 03:09:26;;;;;;;0.50;0.50;;;19.20;98.80;;;;;;5076698;28;20278;-56
2022/06/20 03:11:54;;;;;;;0.70;0.70;;;19.20;98.70;;;;;;5073016;28;20656;-56
2022/06/20 03:14:31;;;;;;;0.30;0.30;;;19.20;98.70;;;;;;5074388;28;20722;-55
2022/06/20 03:16:59;;;;;;;1.25;0.60;;;19.20;98.70;;;;;;5078790;28;20644;-53
2022/06/20 03:19:32;;;;;;;0.60;0.60;;;19.10;98.60;;;;;;5079191;28;20279;-54
2022/06/20 03:22:02;;;;;;;0.50;0.50;;;19.10;98.70;;;;;;5073178;28;20756;-50
2022/06/20 03:24:31;;;;;;;0.55;0.50;;;19.10;98.70;;;;;;5062953;28;20209;-49
2022/06/20 03:27:00;;;;;;;0.40;0.40;;;19.10;98.60;;;;;;5080540;28;20197;-49
2022/06/20 03:29:27;;;;;;;0.70;0.70;;;19.10;98.60;;;;;;5066207;28;20265;-49
2022/06/20 03:31:55;;;;;;;0.70;0.70;;;19.10;98.50;;;;;;5077840;28;20193;-49
2022/06/20 03:34:22;;;;;;;0.63;0.63;;;19.10;98.50;;;;;;5074504;28;20653;-46
2022/06/20 03:36:52;;;;;;;0.60;0.60;;;19.10;98.50;;;;;;5072571;28;20276;-47
2022/06/20 03:39:20;;;;;;;0.57;0.52;;;19.10;98.50;;;;;;5084818;28;20200;-56
2022/06/20 03:41:49;;;;;;;0.50;0.50;;;19.00;98.50;;;;;;5073592;28;20213;-56
2022/06/20 03:44:20;;;;;;;0.50;0.50;;;19.00;98.50;;;;;;5082280;28;20664;-55
2022/06/20 03:46:54;;;;;;;0.50;0.50;;;19.00;98.40;;;;;;5077984;28;20196;-54
2022/06/20 03:49:27;;;;;;;0.60;0.60;;;19.00;98.40;;;;;;5084816;28;20227;-54
2022/06/20 03:52:01;;;;;;;0.45;0.45;;;19.00;98.40;;;;;;5077407;28;20196;-55
2022/06/20 03:54:36;;;;;;;0.52;0.52;;;19.10;98.40;;;;;;5077076;28;20561;-57
2022/06/20 03:57:09;;;;;;;0.40;0.40;;;19.10;98.30;;;;;;5074792;28;20327;-55
2022/06/20 03:59:42;;;;;;;0.57;0.50;;;19.10;98.30;;;;;;5075096;28;20205;-57
2022/06/20 04:02:15;;;;;;;0.60;0.60;;;19.10;98.20;;;;;;5075352;28;20206;-56
2022/06/20 04:04:49;;;;;;;0.60;0.60;;;19.10;98.20;;;;;;5072571;28;20198;-53
2022/06/20 04:07:22;;;;;;;0.50;0.50;;;19.00;98.20;;;;;;5072355;28;20261;-49
2022/06/20 04:12:42;;;;;;;0.68;0.68;;;19.00;98.30;;;;;;5046887;28;20212;-53
2022/06/20 04:15:14;;;;;;;0.70;0.70;;;19.00;98.20;;;;;;5076832;28;20197;-51
2022/06/20 04:20:52;;;;;;;0.50;0.50;;;19.00;98.30;;;;;;5062667;28;20209;-54
2022/06/20 04:23:24;;;;;;;0.98;0.63;;;19.00;98.20;;;;;;5076176;28;20674;-54
2022/06/20 04:25:57;;;;;;;0.57;0.50;;;19.00;98.20;;;;;;5073399;28;20201;-54
2022/06/20 04:28:33;;;;;;;0.50;0.50;;;19.00;98.10;;;;;;5075289;28;20553;-54
2022/06/20 04:31:05;;;;;;;0.43;0.43;;;19.00;98.00;;;;;;5055517;28;20657;-55
2022/06/20 04:33:40;;;;;;;0.52;0.52;;;19.00;98.00;;;;;;5077614;28;20559;-55
2022/06/20 04:36:18;;;;;;;0.52;0.52;;;18.90;98.00;;;;;;5071674;28;20217;-55
2022/06/20 04:38:54;;;;;;;0.73;0.60;;;18.90;98.00;;;;;;5083465;28;20192;-53
2022/06/20 04:41:30;;;;;;;0.50;0.50;;;18.90;98.00;;;;;;5077944;28;20192;-55
2022/06/20 04:44:02;;;;;;;0.60;0.60;;;19.00;98.40;;;;;;5080011;28;20295;-53
2022/06/20 04:46:34;;;;;;;1.42;0.80;;;19.00;98.00;;;;;;5083879;28;20197;-55
2022/06/20 04:49:02;;;;;;;0.52;0.52;;;18.90;98.00;;;;;;5086725;28;20664;-53
2022/06/20 04:51:34;;;;;;;1.45;0.60;;;18.90;98.00;;;;;;5079149;28;20205;-56
2022/06/20 04:54:05;;;;;;;0.60;0.60;;;18.90;98.00;;;;;;5067836;28;20689;-52
2022/06/20 04:56:32;;;;;;;0.70;0.70;;;19.00;98.10;;;;;;5078197;28;20221;-55
2022/06/20 04:59:02;;;;;;;0.50;0.50;;;19.00;98.10;;;;;;5076489;28;20205;-53
2022/06/20 05:01:33;;;;;;;0.40;0.40;;;19.00;98.10;;;;;;5054971;28;20286;-56
2022/06/20 05:04:07;;;;;;;0.60;0.60;;;19.00;98.10;;;;;;5072953;28;20196;-55
2022/06/20 05:06:37;;;;;;;0.55;0.55;;;19.00;98.10;;;;;;5054292;28;20681;-56
2022/06/20 05:09:13;;;;;;;0.40;0.40;;;19.00;98.10;;;;;;5075407;28;20552;-55
2022/06/20 05:11:45;;;;;;;0.50;0.50;;;19.00;98.00;;;;;;5085156;28;20215;-56
2022/06/20 05:14:19;;;;;;;0.50;0.50;;;19.00;97.90;;;;;;5077956;28;20197;-56
2022/06/20 05:16:54;;;;;;;0.63;0.63;;;18.90;97.80;;;;;;5073953;28;20221;-57
2022/06/20 05:19:25;;;;;;;0.40;0.40;;;18.90;97.70;;;;;;5074769;28;20772;-56
2022/06/20 05:21:56;;;;;;;1.00;0.60;;;18.90;97.60;;;;;;5082577;28;20236;-57
2022/06/20 05:24:29;;;;;;;0.63;0.63;;;18.90;97.50;;;;;;5057460;28;20680;-52
2022/06/20 05:26:58;;;;;;;0.45;0.45;;;18.90;97.40;;;;;;5078414;28;20274;-53
2022/06/20 05:29:28;;;;;;;1.17;0.63;;;18.90;97.30;;;;;;5076023;28;20189;-54
2022/06/20 05:31:58;;;;;;;0.50;0.50;;;18.90;97.20;;;;;;5076500;28;20188;-53
2022/06/20 05:34:29;;;;;;;0.82;0.68;;;18.90;97.10;;;;;;5073291;28;20197;-55
2022/06/20 05:37:03;;;;;;;0.55;0.55;;;19.00;97.00;;;;;;5074000;28;20632;-53
2022/06/20 05:39:38;;;;;;;0.60;0.60;;;19.00;96.90;;;;;;5070924;28;20223;-54
2022/06/20 05:42:05;;;;;;;0.95;0.70;;;19.00;96.80;;;;;;5069340;28;20235;-56
2022/06/20 05:44:32;;;;;;;0.43;0.43;;;19.00;96.70;;;;;;5056235;28;20201;-56
2022/06/20 05:47:04;;;;;;;0.80;0.70;;;19.00;96.60;;;;;;5074494;28;20196;-54
2022/06/20 05:49:34;;;;;;;1.30;0.80;;;19.00;96.60;;;;;;5076852;28;20656;-53
2022/06/20 05:52:06;;;;;;;0.50;0.50;;;19.00;96.50;;;;;;5061874;28;20341;-54
2022/06/20 05:54:44;;;;;;;0.50;0.50;;;19.00;96.50;;;;;;5073693;28;20257;-54
2022/06/20 05:57:15;;;;;;;0.60;0.60;;;19.10;96.40;;;;;;5079678;28;20261;-54
2022/06/20 05:59:45;;;;;;;0.95;0.73;;;19.10;96.30;;;;;;5057298;28;20549;-49
2022/06/20 06:02:22;;;;;;;1.05;0.80;;;19.10;96.20;;;;;;5075240;28;20208;-54
2022/06/20 06:04:55;;;;;;;0.82;0.80;;;19.20;96.20;;;;;;5084330;28;20196;-52
2022/06/20 06:07:28;;;;;;;1.10;1.00;;;19.20;96.10;;;;;;5076402;28;20232;-53
2022/06/20 06:10:00;;;;;;;1.67;0.73;;;19.20;96.10;;;;;;5074771;28;20608;-57
2022/06/20 06:12:34;;;;;;;0.70;0.70;;;19.20;96.00;;;;;;5082660;28;20684;-54
2022/06/20 06:15:10;;;;;;;0.80;0.80;;;19.10;96.00;;;;;;5077195;28;20193;-52
2022/06/20 06:17:41;;;;;;;1.00;0.70;;;19.10;96.00;;;;;;5081529;28;20682;-56
2022/06/20 06:20:13;;;;;;;0.50;0.50;;;19.20;96.10;;;;;;5069384;28;20385;-52
2022/06/20 06:22:44;;;;;;;1.88;0.90;;;19.20;96.00;;;;;;5069950;28;20217;-51
2022/06/20 06:25:23;;;;;;;0.88;0.80;;;19.30;96.10;;;;;;5069447;28;20197;-52
2022/06/20 06:27:53;;;;;;;0.60;0.60;;;19.20;96.00;;;;;;5072062;28;20659;-50
2022/06/20 06:30:23;;;;;;;0.80;0.80;;;19.30;96.00;;;;;;5075667;28;20196;-51
2022/06/20 06:32:55;;;;;;;0.73;0.73;;;19.30;95.90;;;;;;5070688;28;20189;-52
2022/06/20 06:35:26;;;;;;;0.77;0.77;;;19.30;95.80;;;;;;5074882;28;20189;-55
2022/06/20 06:37:59;;;;;;;1.00;0.60;;;19.40;95.70;;;;;;5069588;28;20254;-55
2022/06/20 06:40:34;;;;;;;0.50;0.50;;;19.40;95.60;;;;;;5054699;28;20201;-54
2022/06/20 06:43:03;;;;;;;0.65;0.65;;;19.40;95.60;;;;;;5082617;28;20258;-55
2022/06/20 06:45:35;;;;;;;0.73;0.63;;;19.40;95.80;;;;;;5076416;28;20200;-53
2022/06/20 06:48:06;;;;;;;0.57;0.57;;;19.50;95.90;;;;;;5074803;28;20189;-51
2022/06/20 06:50:38;;;;;;;0.52;0.52;;;19.60;96.00;;;;;;5073902;28;20204;-54
2022/06/20 06:53:12;;;;;;;0.52;0.52;;;19.60;95.90;;;;;;5075876;28;20189;-54
2022/06/20 06:55:43;;;;;;;0.60;0.60;;;19.70;95.90;;;;;;5072252;28;20193;-55
2022/06/20 06:58:17;;;;;;;0.60;0.60;;;19.70;95.90;;;;;;5079025;28;20184;-51
2022/06/20 07:00:48;;;;;;;0.80;0.57;;;19.80;95.80;;;;;;5086655;28;20226;-55
2022/06/20 07:03:20;;;;;;;0.55;0.50;;;19.80;95.70;;;;;;5080085;28;20678;-54
2022/06/20 07:05:51;;;;;;;0.80;0.80;;;19.80;95.60;;;;;;5085841;28;20192;-50
2022/06/20 07:08:22;;;;;;;0.50;0.50;;;19.90;95.60;;;;;;5070539;28;20252;-51
2022/06/20 07:10:55;;;;;;;0.95;0.60;;;20.00;95.50;;;;;;5074120;28;20284;-54
2022/06/20 07:13:33;;;;;;;0.60;0.60;;;20.00;95.30;;;;;;5072660;28;20680;-53
2022/06/20 07:16:02;;;;;;;0.57;0.50;;;20.00;95.10;;;;;;5077696;28;20340;-53
2022/06/20 07:18:39;;;;;;;0.98;0.60;;;20.10;95.00;;;;;;5079422;28;20236;-50
2022/06/20 07:21:06;;;;;;;0.75;0.50;;;20.10;94.90;;;;;;5074143;28;20205;-56
2022/06/20 07:23:34;;;;;;;0.82;0.60;;;20.10;94.70;;;;;;5080630;28;20209;-50
2022/06/20 07:26:03;;;;;;;0.55;0.55;;;20.20;94.60;;;;;;5072486;28;20219;-55
2022/06/20 07:28:35;;;;;;;0.70;0.70;;;20.20;94.50;;;;;;5086802;28;20216;-50
2022/06/20 07:31:10;;;;;;;0.80;0.80;;;20.20;94.30;;;;;;5079586;28;20649;-52
2022/06/20 07:33:43;;;;;;;0.80;0.75;;;20.30;94.20;;;;;;5080931;28;20184;-55
2022/06/20 07:36:13;;;;;;;0.63;0.63;;;20.30;94.10;;;;;;5061655;28;20220;-55
2022/06/20 07:38:44;;;;;;;0.95;0.90;;;20.30;94.00;;;;;;5083897;28;20189;-55
2022/06/20 07:41:16;;;;;;;0.98;0.88;;;20.30;94.00;;;;;;5080804;28;20193;-56
2022/06/20 07:43:50;;;;;;;1.65;1.05;;;20.30;94.00;;;;;;5081639;28;20228;-55
2022/06/20 07:46:22;;;;;;;0.80;0.80;;;20.40;93.90;;;;;;5081160;28;20266;-55
2022/06/20 07:48:52;;;;;;;0.77;0.77;;;20.30;93.80;;;;;;5080922;28;20220;-55
2022/06/20 07:51:24;;;;;;;1.00;0.68;;;20.40;93.80;;;;;;5075003;28;20569;-55
2022/06/20 07:53:55;;;;;;;0.88;0.82;;;20.40;94.20;;;;;;5085865;28;20185;-50
2022/06/20 07:56:31;;;;;;;1.35;1.00;;;20.40;93.90;;;;;;5066504;28;20292;-54
2022/06/20 07:59:03;;;;;;;1.23;0.98;;;20.40;93.80;;;;;;5084731;28;20258;-55
2022/06/20 08:01:35;;;;;;;1.67;0.70;;;20.50;93.90;;;;;;5084972;28;20189;-56
2022/06/20 08:04:07;;;;;;;0.70;0.70;;;20.50;93.80;;;;;;5086900;28;20213;-56
2022/06/20 08:06:38;;;;;;;0.70;0.70;;;20.60;93.70;;;;;;5084811;28;20202;-52
2022/06/20 08:09:11;;;;;;;1.50;0.80;;;20.60;93.70;;;;;;5087594;28;20726;-56
2022/06/20 08:11:45;;;;;;;2.10;0.73;;;20.60;93.70;;;;;;5061810;28;20193;-55
2022/06/20 08:14:21;;;;;;;1.25;0.80;;;20.60;93.60;;;;;;5066431;28;20196;-54
2022/06/20 08:16:51;;;;;;;0.73;0.73;;;20.60;93.60;;;;;;5063649;28;20250;-53
2022/06/20 08:19:18;;;;;;;1.70;0.93;;;20.60;93.60;;;;;;5082969;28;20263;-54
2022/06/20 08:21:48;;;;;;;0.57;0.57;;;20.60;93.60;;;;;;5079910;28;20294;-53
2022/06/20 08:24:19;;;;;;;0.80;0.63;;;20.60;93.50;;;;;;5083480;28;20575;-53
2022/06/20 08:26:55;;;;;;;0.55;0.55;;;20.60;93.50;;;;;;5075954;28;20273;-55
2022/06/20 08:29:26;;;;;;;1.05;0.80;;;20.60;93.40;;;;;;5084421;28;20278;-52
2022/06/20 08:32:00;;;;;;;0.60;0.60;;;20.50;93.30;;;;;;5080845;28;20188;-51
2022/06/20 08:34:37;;;;;;;1.20;1.10;;;20.50;93.30;;;;;;5082430;28;20201;-54
2022/06/20 08:37:12;;;;;;;0.82;0.65;;;20.50;93.20;;;;;;5077604;28;20406;-54
2022/06/20 08:39:46;;;;;;;1.38;1.27;;;20.50;93.20;;;;;;5080275;28;20664;-52
2022/06/20 08:42:43;;;;;;;1.27;1.17;;;20.50;93.10;;;;;;5077975;28;20197;-51
2022/06/20 08:45:22;;;;;;;2.30;1.50;;;20.50;93.00;;;;;;5038414;28;20274;-54
2022/06/20 08:48:22;;;;;;;1.83;1.73;;;20.50;92.90;;;;;;5071192;28;20250;-50
2022/06/20 08:51:21;;;;;;;2.42;2.22;;;20.50;92.80;;;;;;5080278;28;20270;-52
2022/06/20 08:54:15;;;;;;;2.97;2.08;;;20.40;92.70;;;;;;5078414;28;20193;-52
2022/06/20 08:56:52;;;;;;;1.50;1.40;;;20.40;92.50;;;;;;5057440;28;20235;-55
2022/06/20 08:59:38;;;;;;;1.67;1.40;;;20.40;92.40;;;;;;5078183;28;20872;-55
2022/06/20 09:02:20;;;;;;;1.95;1.80;;;20.30;92.30;;;;;;5082363;28;20583;-54
2022/06/20 09:05:23;;;;;;;1.75;1.65;;;20.20;92.20;;;;;;5074162;28;20216;-51
2022/06/20 09:08:16;;;;;;;1.40;1.30;;;20.20;92.10;;;;;;5074697;28;20687;-56
2022/06/20 09:10:51;;;;;;;2.63;1.40;;;20.10;91.90;;;;;;5074457;28;20197;-54
2022/06/20 09:13:46;;;;;;;1.35;1.25;;;20.10;91.80;;;;;;5070885;28;20189;-56
2022/06/20 09:16:31;;;;;;;1.50;1.30;;;20.10;91.80;;;;;;5072422;28;20267;-53
2022/06/20 09:19:16;;;;;;;2.83;1.52;;;20.00;91.60;;;;;;5076809;28;20875;-54
2022/06/20 09:21:57;;;;;;;3.33;1.58;;;20.00;91.60;;;;;;5069935;28;20718;-54
2022/06/20 09:24:37;;;;;;;0.88;0.85;;;19.90;91.60;;;;;;5074822;28;20250;-52
2022/06/20 09:27:10;;;;;;;1.00;0.90;;;19.90;91.70;;;;;;5073885;28;20209;-52
2022/06/20 09:30:06;;;;;;;1.05;0.80;;;19.90;91.80;;;;;;5070993;28;20568;-54
2022/06/20 09:33:27;;;;;;;0.85;0.85;;;19.90;92.00;;;;;;5076052;28;20208;-51
2022/06/20 09:36:33;;;;;;;3.15;0.82;;;19.90;92.10;;;;;;5069042;28;20208;-55
2022/06/20 09:39:20;;;;;;;1.65;1.00;;;19.80;92.20;;;;;;5074415;28;20220;-54
2022/06/20 09:41:57;;;;;;;1.48;1.00;;;19.70;92.40;;;;;;5077669;28;20204;-53
2022/06/20 09:44:34;;;;;;;3.00;0.98;;;19.70;92.60;;;;;;5070699;28;20220;-56
2022/06/20 09:47:11;;;;;;;1.00;1.00;;;19.70;92.80;;;;;;5080094;28;20193;-51
2022/06/20 09:49:47;;;;;;;1.13;0.98;;;19.70;93.10;;;;;;5080838;28;20310;-52
2022/06/20 09:52:24;;;;;;;1.25;1.00;;;19.60;93.20;;;;;;5081143;28;20196;-54
2022/06/20 09:54:59;;;;;;;1.05;0.88;;;19.60;93.50;;;;;;5080562;28;20188;-52
2022/06/20 09:57:35;;;;;;;3.30;1.02;;;19.60;93.60;;;;;;5074867;28;20252;-53
2022/06/20 10:00:08;;;;;;;2.75;1.20;;;19.50;93.70;;;;;;5074212;28;20254;-55
2022/06/20 10:02:50;;;;;;;2.58;1.60;;;19.40;93.90;;;;;;5072560;28;20201;-55
2022/06/20 10:05:35;;;;;;;3.28;1.40;;;19.30;94.10;;;;;;5074544;28;20208;-54
2022/06/20 10:08:15;;;;;;;2.85;1.30;;;19.10;94.30;;;;;;5073574;28;20279;-56
2022/06/20 10:10:48;;;;;;;2.10;1.90;;;19.00;94.50;;;;;;5068484;28;20274;-54
2022/06/20 10:13:24;;;;;;;2.38;1.70;;;19.00;94.60;;;;;;5072114;28;20247;-55
2022/06/20 10:16:01;;;;;;;1.75;1.60;;;19.00;94.60;;;;;;5071991;28;20193;-53
2022/06/20 10:18:36;;;;;;;1.17;1.13;;;19.00;94.70;;;;;;5081275;28;20819;-55
2022/06/20 10:21:10;;;;;;;1.80;1.50;;;19.00;94.80;;;;;;5068939;28;20201;-53
2022/06/20 10:24:05;;;;;;;1.48;1.35;;;18.90;94.70;;;;;;5072822;28;20588;-53
2022/06/20 10:26:57;;;;;;;1.50;1.05;;;18.90;94.90;;;;;;5064866;28;20588;-55
2022/06/20 10:29:30;;;;;;;1.85;0.93;;;18.90;95.00;;;;;;5070383;28;20229;-54
2022/06/20 10:32:10;;;;;;;2.20;1.10;;;18.90;95.10;;;;;;5076509;28;20253;-53
2022/06/20 10:34:43;;;;;;;1.95;1.30;;;19.00;95.10;;;;;;5067471;28;20576;-55
2022/06/20 10:37:24;;;;;;;1.35;0.90;;;19.00;95.20;;;;;;5077151;28;20431;-55
2022/06/20 10:39:57;;;;;;;0.90;0.90;;;19.00;95.20;;;;;;5078396;28;20734;-55
2022/06/20 10:42:33;;;;;;;1.75;0.90;;;19.00;95.30;;;;;;5056374;28;20208;-52
2022/06/20 10:45:24;;;;;;;0.88;0.88;;;19.10;95.30;;;;;;5072014;28;20239;-51
2022/06/20 10:48:15;;;;;;;2.28;1.05;;;19.10;95.30;;;;;;5078983;28;20193;-48
2022/06/20 10:50:47;;;;;;;0.90;0.90;;;19.10;95.40;;;;;;5051622;28;20197;-52
2022/06/20 10:53:21;;;;;;;0.88;0.88;;;19.10;95.40;;;;;;5074603;28;20270;-48
2022/06/20 10:55:59;;;;;;;1.17;0.85;;;19.10;95.50;;;;;;5072093;28;20270;-52
2022/06/20 10:58:48;;;;;;;2.35;1.15;;;19.10;95.60;;;;;;5074840;28;20197;-51
2022/06/20 11:01:23;;;;;;;0.98;0.80;;;19.10;95.60;;;;;;5078313;28;20242;-53
2022/06/20 11:04:25;;;;;;;1.27;0.93;;;19.20;95.70;;;;;;5076899;28;20473;-52
2022/06/20 11:07:06;;;;;;;0.82;0.68;;;19.20;95.70;;;;;;5077974;28;20766;-47
2022/06/20 11:09:44;;;;;;;0.95;0.80;;;19.20;95.80;;;;;;5085904;28;20195;-53
2022/06/20 11:12:23;;;;;;;1.05;0.90;;;19.20;95.80;;;;;;5078388;28;20623;-51
2022/06/20 11:14:57;;;;;;;0.73;0.70;;;19.20;95.80;;;;;;5084819;28;20199;-55
2022/06/20 11:17:33;;;;;;;0.75;0.75;;;19.20;95.80;;;;;;5081753;28;20205;-48
2022/06/20 11:20:13;;;;;;;0.70;0.70;;;19.20;95.70;;;;;;5076548;28;20240;-54
2022/06/20 11:22:44;;;;;;;0.80;0.80;;;19.20;95.70;;;;;;5078634;28;20684;-53
2022/06/20 11:25:23;;;;;;;0.60;0.60;;;19.10;95.60;;;;;;5066710;28;20248;-49
2022/06/20 11:28:24;;;;;;;0.77;0.73;;;19.20;95.70;;;;;;5070765;28;20212;-56
2022/06/20 11:30:59;;;;;;;2.95;0.80;;;19.20;95.70;;;;;;5066593;28;20303;-47
2022/06/20 11:36:33;;;;;;;1.00;0.80;;;19.20;95.70;;;;;;5076728;28;20193;-55
2022/06/20 11:39:14;;;;;;;0.80;0.60;;;19.30;95.70;;;;;;5074692;28;20220;-50
2022/06/20 11:41:50;;;;;;;0.63;0.63;;;19.30;95.70;;;;;;5075361;28;20193;-55
2022/06/20 11:44:38;;;;;;;0.80;0.80;;;19.30;95.70;;;;;;5072473;28;20208;-56
2022/06/20 11:47:23;;;;;;;1.15;1.05;;;19.30;95.70;;;;;;5071277;28;20219;-49
2022/06/20 11:50:19;;;;;;;0.77;0.60;;;19.30;95.70;;;;;;5054434;28;20273;-51
2022/06/20 11:52:56;;;;;;;0.73;0.73;;;19.20;95.70;;;;;;5078005;28;20303;-56
2022/06/20 11:55:30;;;;;;;1.33;0.88;;;19.20;95.80;;;;;;5079936;28;20717;-54
2022/06/20 11:58:02;;;;;;;1.63;0.80;;;19.20;95.80;;;;;;5074278;28;20227;-54
2022/06/20 12:00:35;;;;;;;0.60;0.60;;;19.20;95.80;;;;;;5080393;28;20200;-55
2022/06/20 12:03:12;;;;;;;0.82;0.70;;;19.30;95.90;;;;;;5082462;28;20679;-53
2022/06/20 12:05:48;;;;;;;0.57;0.57;;;19.30;95.90;;;;;;5082462;28;20209;-50
2022/06/20 12:08:30;;;;;;;0.93;0.70;;;19.40;95.90;;;;;;5074772;28;20681;-55
2022/06/20 12:11:00;;;;;;;1.10;1.00;;;19.40;95.80;;;;;;5078195;28;20181;-48
2022/06/20 12:13:46;;;;;;;2.85;1.15;;;19.50;95.80;;;;;;5071072;28;20197;-54
2022/06/20 12:16:40;;;;;;;1.10;0.88;;;19.60;95.80;;;;;;5063723;28;20201;-52
2022/06/20 12:24:52;;;;;;;1.05;1.05;;;20.00;95.70;;;;;;5082473;28;20254;-56
2022/06/20 12:27:23;;;;;;;3.30;1.45;;;20.00;95.60;;;;;;5075339;28;20209;-56
2022/06/20 12:29:50;;;;;;;1.30;1.20;;;20.00;95.50;;;;;;5081160;28;20254;-54
2022/06/20 12:32:22;;;;;;;1.15;1.10;;;20.00;95.60;;;;;;5063497;28;20188;-55
2022/06/20 12:34:56;;;;;;;1.20;1.10;;;20.00;95.60;;;;;;5073243;28;20185;-52
2022/06/20 12:37:29;;;;;;;1.27;1.15;;;20.00;95.60;;;;;;5076657;28;20199;-54
2022/06/20 12:40:03;;;;;;;0.70;0.70;;;19.90;95.50;;;;;;5078669;28;20192;-52
2022/06/20 12:42:43;;;;;;;2.17;1.08;;;19.90;95.50;;;;;;5059171;28;20583;-55
2022/06/20 12:45:36;;;;;;;1.00;1.00;;;19.90;95.50;;;;;;5076406;28;20630;-54
2022/06/20 12:48:20;;;;;;;1.20;1.10;;;19.90;95.40;;;;;;5083775;28;20618;-55
2022/06/20 12:50:54;;;;;;;1.20;1.10;;;19.90;95.40;;;;;;5078722;28;20220;-55
2022/06/20 12:53:39;;;;;;;1.52;1.00;;;19.80;95.40;;;;;;5086245;28;20208;-51
2022/06/20 12:56:18;;;;;;;1.30;1.17;;;19.80;95.40;;;;;;5087801;28;20196;-53
2022/06/20 12:59:06;;;;;;;1.95;0.90;;;19.80;95.40;;;;;;5071884;28;20197;-50
2022/06/20 13:01:40;;;;;;;1.73;1.13;;;19.80;95.40;;;;;;5079354;28;20257;-55
2022/06/20 13:04:36;;;;;;;0.70;0.70;;;19.70;95.20;;;;;;5086474;28;20208;-56
2022/06/20 13:07:28;;;;;;;1.42;1.00;;;19.80;95.20;;;;;;5075086;28;20192;-54
2022/06/20 13:10:22;;;;;;;0.90;0.90;;;19.80;95.00;;;;;;5057042;28;20219;-52
2022/06/20 13:13:09;;;;;;;0.80;0.80;;;19.80;95.00;;;;;;5082126;28;20245;-51
2022/06/20 13:15:46;;;;;;;0.95;0.88;;;19.80;95.00;;;;;;5081357;28;20215;-56
2022/06/20 13:18:32;;;;;;;1.58;0.90;;;19.80;95.00;;;;;;5086120;28;20633;-55
2022/06/20 13:21:11;;;;;;;1.42;1.10;;;19.80;94.90;;;;;;5057125;28;20680;-55
2022/06/20 13:24:11;;;;;;;1.38;0.90;;;19.80;94.90;;;;;;5079843;28;20189;-54
2022/06/20 13:26:49;;;;;;;3.15;2.30;;;19.70;94.90;;;;;;5060655;28;20204;-54
2022/06/20 13:29:33;;;;;;;2.42;2.00;;;19.70;95.00;;;;;;5063063;28;20201;-53
2022/06/20 13:32:08;;;;;;;1.58;1.48;;;19.70;95.10;;;;;;5074279;28;20709;-52
2022/06/20 13:34:49;;;;;;;1.67;1.58;;;19.70;95.20;;;;;;5084561;28;20241;-53
2022/06/20 13:37:42;;;;;;;1.33;1.23;;;19.60;95.20;;;;;;5073768;28;20189;-56
2022/06/20 13:40:35;;;;;;;2.85;1.42;;;19.60;95.20;;;;;;5070449;28;20197;-55
2022/06/20 13:43:10;;;;;;;1.30;1.13;;;19.60;95.20;;;;;;5073376;28;20193;-55
2022/06/20 13:45:45;;;;;;;1.23;1.13;;;19.70;95.10;;;;;;5073608;28;20203;-55
2022/06/20 13:48:18;;;;;;;1.55;1.20;;;19.70;94.90;;;;;;5076640;28;20608;-51